Milan Linate, Italy

3:41 PM CEST on August 26, 2016 (GMT +0200)
Peschiera Borromeo | | Change Station

Elev 318 ft 45.42 °N, 9.31 °E | Updated 10 minutes ago

Partly Cloudy
Partly Cloudy
85.3 °F
Feels Like 87 °F
N
1.0
Wind Variable Wind from South
Gusts 11.0 mph

Today
High -- | Low -- °F
--% Chance of Precip.
Yesterday
High -- | Low -- °F
Precip. -- in
Pressure 30.09 in
Visibility 6.2 miles
Clouds Few 3000 ft
Heat Index 87 °F
Dew Point 64 °F
Humidity 49%
Rainfall 0.00 in
Snow Depth Not available.
6:37 AM 8:10 PM
Waning Crescent, 34% visible
METAR LIML 261320Z VRB05KT 9999 FEW030 29/16 Q1019 NOSIG
Pressure 30.09 in
Visibility 6.2 miles
Clouds Few 3000 ft
Heat Index 87 °F
Dew Point 64 °F
Humidity 49%
Rainfall 0.00 in
Snow Depth Not available.
6:37 AM 8:10 PM
Waning Crescent, 34% visible
METAR LIML 261320Z VRB05KT 9999 FEW030 29/16 Q1019 NOSIG

10-Day Weather Forecast

×

Almanac

Astronomy

Aug. 26, 2016 Rise Set
Actual Time
Civil Twilight
Nautical Twilight
Astronomical Twilight
Moon
Length of Visible Light
Length of Day
Tomorrow will be .
, % of the Moon is Illuminated

Today's Extremes

Country Highs Country Lows

Community

WunderPhotos

Upload Photos

1,935,084 photos uploaded!

WunderBlog® & News

Nearby

Air Quality

  Air Quality AQ Index Pollutant
Not available.

Snow Depth

Station Depth Elevation

Earthquake Activity

City Distance Mag. Time & Date
Minimum magnitude displayed is 2.5.

Coastal Water Temperatures

Place Temperature

Stations

Nearby Weather Stations

Station Location Temp. Windchill Dew Point Humidity Wind Precip. Elev Updated Type